sensor_id;sensor_type;location;lat;lon;timestamp;P1;durP1;ratioP1;P2;durP2;ratioP2
72201;SDS011;60105;54.956;73.412;2022-10-18T00:00:47;12.52;;;5.70;;
72201;SDS011;60105;54.956;73.412;2022-10-18T00:03:14;12.03;;;5.87;;
72201;SDS011;60105;54.956;73.412;2022-10-18T00:05:45;11.65;;;5.75;;
72201;SDS011;60105;54.956;73.412;2022-10-18T00:08:22;9.18;;;5.65;;
72201;SDS011;60105;54.956;73.412;2022-10-18T00:10:49;8.73;;;4.75;;
72201;SDS011;60105;54.956;73.412;2022-10-18T00:13:15;8.82;;;5.70;;
72201;SDS011;60105;54.956;73.412;2022-10-18T00:15:52;11.90;;;5.13;;
72201;SDS011;60105;54.956;73.412;2022-10-18T00:18:20;10.38;;;6.00;;
72201;SDS011;60105;54.956;73.412;2022-10-18T00:21:00;11.30;;;5.93;;
72201;SDS011;60105;54.956;73.412;2022-10-18T00:23:27;9.98;;;4.78;;
72201;SDS011;60105;54.956;73.412;2022-10-18T00:26:01;9.85;;;5.07;;
72201;SDS011;60105;54.956;73.412;2022-10-18T00:28:33;13.30;;;5.77;;
72201;SDS011;60105;54.956;73.412;2022-10-18T00:33:55;9.43;;;5.72;;
72201;SDS011;60105;54.956;73.412;2022-10-18T00:36:28;9.38;;;5.65;;
72201;SDS011;60105;54.956;73.412;2022-10-18T00:38:57;9.65;;;5.90;;
72201;SDS011;60105;54.956;73.412;2022-10-18T00:41:24;9.40;;;5.27;;
72201;SDS011;60105;54.956;73.412;2022-10-18T00:46:26;9.45;;;5.90;;
72201;SDS011;60105;54.956;73.412;2022-10-18T00:48:54;10.55;;;5.43;;
72201;SDS011;60105;54.956;73.412;2022-10-18T00:51:22;10.90;;;6.10;;
72201;SDS011;60105;54.956;73.412;2022-10-18T00:54:00;14.27;;;6.33;;
72201;SDS011;60105;54.956;73.412;2022-10-18T00:56:32;10.05;;;6.13;;
72201;SDS011;60105;54.956;73.412;2022-10-18T00:59:04;10.02;;;6.47;;
72201;SDS011;60105;54.956;73.412;2022-10-18T01:01:41;10.45;;;5.85;;
72201;SDS011;60105;54.956;73.412;2022-10-18T01:04:08;12.00;;;6.55;;
72201;SDS011;60105;54.956;73.412;2022-10-18T01:21:21;11.37;;;6.27;;
72201;SDS011;60105;54.956;73.412;2022-10-18T01:32:37;16.13;;;6.70;;
72201;SDS011;60105;54.956;73.412;2022-10-18T01:35:09;12.43;;;6.90;;
72201;SDS011;60105;54.956;73.412;2022-10-18T01:37:42;18.05;;;5.93;;
72201;SDS011;60105;54.956;73.412;2022-10-18T01:40:11;12.63;;;6.32;;
72201;SDS011;60105;54.956;73.412;2022-10-18T01:42:43;11.18;;;6.13;;
72201;SDS011;60105;54.956;73.412;2022-10-18T01:45:22;15.93;;;6.47;;
72201;SDS011;60105;54.956;73.412;2022-10-18T01:47:50;12.60;;;6.07;;
72201;SDS011;60105;54.956;73.412;2022-10-18T01:50:29;18.30;;;6.50;;
72201;SDS011;60105;54.956;73.412;2022-10-18T01:52:56;13.85;;;7.60;;
72201;SDS011;60105;54.956;73.412;2022-10-18T01:55:42;14.48;;;6.55;;
72201;SDS011;60105;54.956;73.412;2022-10-18T02:00:40;12.27;;;6.80;;
72201;SDS011;60105;54.956;73.412;2022-10-18T02:11:28;11.27;;;6.82;;
72201;SDS011;60105;54.956;73.412;2022-10-18T02:13:56;11.67;;;6.33;;
72201;SDS011;60105;54.956;73.412;2022-10-18T02:16:33;15.00;;;7.00;;
72201;SDS011;60105;54.956;73.412;2022-10-18T02:21:53;14.30;;;6.55;;
72201;SDS011;60105;54.956;73.412;2022-10-18T02:24:23;12.73;;;7.68;;
72201;SDS011;60105;54.956;73.412;2022-10-18T02:27:04;13.00;;;5.73;;
72201;SDS011;60105;54.956;73.412;2022-10-18T02:29:31;12.52;;;5.90;;
72201;SDS011;60105;54.956;73.412;2022-10-18T02:32:02;12.35;;;7.00;;
72201;SDS011;60105;54.956;73.412;2022-10-18T02:34:36;11.50;;;6.40;;
72201;SDS011;60105;54.956;73.412;2022-10-18T02:37:06;13.63;;;6.50;;
72201;SDS011;60105;54.956;73.412;2022-10-18T02:39:36;13.37;;;6.07;;
72201;SDS011;60105;54.956;73.412;2022-10-18T02:42:09;16.05;;;6.97;;
72201;SDS011;60105;54.956;73.412;2022-10-18T02:44:36;13.55;;;7.20;;
72201;SDS011;60105;54.956;73.412;2022-10-18T02:47:03;13.38;;;6.53;;
72201;SDS011;60105;54.956;73.412;2022-10-18T02:49:31;17.13;;;6.70;;
72201;SDS011;60105;54.956;73.412;2022-10-18T02:51:58;12.73;;;6.93;;
72201;SDS011;60105;54.956;73.412;2022-10-18T02:54:24;12.10;;;6.38;;
72201;SDS011;60105;54.956;73.412;2022-10-18T02:56:50;14.07;;;6.95;;
72201;SDS011;60105;54.956;73.412;2022-10-18T02:59:16;18.08;;;6.70;;
72201;SDS011;60105;54.956;73.412;2022-10-18T03:01:42;11.23;;;6.90;;
72201;SDS011;60105;54.956;73.412;2022-10-18T03:04:09;14.43;;;6.83;;
72201;SDS011;60105;54.956;73.412;2022-10-18T03:06:44;12.77;;;7.47;;
72201;SDS011;60105;54.956;73.412;2022-10-18T03:09:10;10.50;;;6.90;;
72201;SDS011;60105;54.956;73.412;2022-10-18T03:11:36;13.32;;;6.93;;
72201;SDS011;60105;54.956;73.412;2022-10-18T03:14:02;12.18;;;7.03;;
72201;SDS011;60105;54.956;73.412;2022-10-18T03:16:29;10.23;;;6.57;;
72201;SDS011;60105;54.956;73.412;2022-10-18T03:18:55;11.55;;;7.15;;
72201;SDS011;60105;54.956;73.412;2022-10-18T03:21:21;12.63;;;7.63;;
72201;SDS011;60105;54.956;73.412;2022-10-18T03:23:47;10.75;;;6.50;;
72201;SDS011;60105;54.956;73.412;2022-10-18T03:26:13;11.68;;;6.93;;
72201;SDS011;60105;54.956;73.412;2022-10-18T03:28:49;14.93;;;6.57;;
72201;SDS011;60105;54.956;73.412;2022-10-18T03:31:16;13.35;;;7.32;;
72201;SDS011;60105;54.956;73.412;2022-10-18T03:33:42;13.63;;;6.88;;
72201;SDS011;60105;54.956;73.412;2022-10-18T03:36:08;14.00;;;7.07;;
72201;SDS011;60105;54.956;73.412;2022-10-18T03:38:34;12.15;;;6.93;;
72201;SDS011;60105;54.956;73.412;2022-10-18T03:41:01;17.87;;;7.40;;
72201;SDS011;60105;54.956;73.412;2022-10-18T03:43:27;23.92;;;6.75;;
72201;SDS011;60105;54.956;73.412;2022-10-18T03:45:53;17.55;;;7.22;;
72201;SDS011;60105;54.956;73.412;2022-10-18T03:48:20;11.77;;;6.53;;
72201;SDS011;60105;54.956;73.412;2022-10-18T03:50:46;16.42;;;6.78;;
72201;SDS011;60105;54.956;73.412;2022-10-18T03:53:12;12.07;;;6.90;;
72201;SDS011;60105;54.956;73.412;2022-10-18T03:55:39;12.65;;;7.63;;
72201;SDS011;60105;54.956;73.412;2022-10-18T03:58:05;15.40;;;9.18;;
72201;SDS011;60105;54.956;73.412;2022-10-18T04:00:31;13.63;;;7.25;;
72201;SDS011;60105;54.956;73.412;2022-10-18T04:02:57;12.77;;;8.38;;
72201;SDS011;60105;54.956;73.412;2022-10-18T04:05:24;13.47;;;8.53;;
72201;SDS011;60105;54.956;73.412;2022-10-18T04:07:52;15.40;;;10.25;;
72201;SDS011;60105;54.956;73.412;2022-10-18T04:10:29;14.75;;;9.25;;
72201;SDS011;60105;54.956;73.412;2022-10-18T04:12:55;16.67;;;9.65;;
72201;SDS011;60105;54.956;73.412;2022-10-18T04:15:21;15.85;;;10.27;;
72201;SDS011;60105;54.956;73.412;2022-10-18T04:17:48;17.73;;;9.50;;
72201;SDS011;60105;54.956;73.412;2022-10-18T04:20:14;16.17;;;9.32;;
72201;SDS011;60105;54.956;73.412;2022-10-18T04:22:40;20.13;;;9.35;;
72201;SDS011;60105;54.956;73.412;2022-10-18T04:25:06;14.40;;;8.77;;
72201;SDS011;60105;54.956;73.412;2022-10-18T04:27:32;20.50;;;9.40;;
72201;SDS011;60105;54.956;73.412;2022-10-18T04:29:59;15.97;;;8.37;;
72201;SDS011;60105;54.956;73.412;2022-10-18T04:32:25;18.63;;;9.40;;
72201;SDS011;60105;54.956;73.412;2022-10-18T04:34:53;15.30;;;9.00;;
72201;SDS011;60105;54.956;73.412;2022-10-18T04:37:19;16.83;;;8.43;;
72201;SDS011;60105;54.956;73.412;2022-10-18T04:39:45;14.30;;;8.50;;
72201;SDS011;60105;54.956;73.412;2022-10-18T04:42:13;14.10;;;8.83;;
72201;SDS011;60105;54.956;73.412;2022-10-18T04:44:39;16.23;;;8.65;;
72201;SDS011;60105;54.956;73.412;2022-10-18T04:47:06;14.15;;;8.77;;
72201;SDS011;60105;54.956;73.412;2022-10-18T04:49:32;15.35;;;8.88;;
72201;SDS011;60105;54.956;73.412;2022-10-18T04:51:58;14.68;;;9.00;;
72201;SDS011;60105;54.956;73.412;2022-10-18T04:54:24;15.90;;;8.60;;
72201;SDS011;60105;54.956;73.412;2022-10-18T04:56:50;15.38;;;8.70;;
72201;SDS011;60105;54.956;73.412;2022-10-18T04:59:17;20.10;;;13.90;;
72201;SDS011;60105;54.956;73.412;2022-10-18T05:01:43;26.60;;;16.55;;
72201;SDS011;60105;54.956;73.412;2022-10-18T05:04:14;29.80;;;19.95;;
72201;SDS011;60105;54.956;73.412;2022-10-18T05:06:42;21.33;;;15.87;;
72201;SDS011;60105;54.956;73.412;2022-10-18T05:09:08;26.50;;;17.95;;
72201;SDS011;60105;54.956;73.412;2022-10-18T05:11:34;25.98;;;17.08;;
72201;SDS011;60105;54.956;73.412;2022-10-18T05:14:05;15.80;;;10.10;;
72201;SDS011;60105;54.956;73.412;2022-10-18T05:16:34;14.10;;;8.80;;
72201;SDS011;60105;54.956;73.412;2022-10-18T05:19:02;15.67;;;9.47;;
72201;SDS011;60105;54.956;73.412;2022-10-18T05:21:29;20.27;;;9.35;;
72201;SDS011;60105;54.956;73.412;2022-10-18T05:23:55;15.43;;;9.18;;
72201;SDS011;60105;54.956;73.412;2022-10-18T05:26:21;14.80;;;8.75;;
72201;SDS011;60105;54.956;73.412;2022-10-18T05:28:48;13.98;;;9.15;;
72201;SDS011;60105;54.956;73.412;2022-10-18T05:31:16;15.50;;;9.20;;
72201;SDS011;60105;54.956;73.412;2022-10-18T05:33:43;16.42;;;10.32;;
72201;SDS011;60105;54.956;73.412;2022-10-18T05:36:09;17.35;;;10.45;;
72201;SDS011;60105;54.956;73.412;2022-10-18T05:38:39;18.63;;;10.07;;
72201;SDS011;60105;54.956;73.412;2022-10-18T05:41:10;18.50;;;11.88;;
72201;SDS011;60105;54.956;73.412;2022-10-18T05:43:37;23.60;;;12.87;;
72201;SDS011;60105;54.956;73.412;2022-10-18T05:46:05;21.85;;;12.50;;
72201;SDS011;60105;54.956;73.412;2022-10-18T05:48:33;23.10;;;12.63;;
72201;SDS011;60105;54.956;73.412;2022-10-18T05:50:59;19.17;;;11.23;;
72201;SDS011;60105;54.956;73.412;2022-10-18T05:53:26;19.05;;;10.73;;
72201;SDS011;60105;54.956;73.412;2022-10-18T05:55:53;18.57;;;10.30;;
72201;SDS011;60105;54.956;73.412;2022-10-18T05:58:19;14.07;;;9.15;;
72201;SDS011;60105;54.956;73.412;2022-10-18T06:00:45;14.52;;;9.55;;
72201;SDS011;60105;54.956;73.412;2022-10-18T06:03:12;17.38;;;9.15;;
72201;SDS011;60105;54.956;73.412;2022-10-18T06:05:38;15.95;;;9.93;;
72201;SDS011;60105;54.956;73.412;2022-10-18T06:08:04;15.57;;;8.63;;
72201;SDS011;60105;54.956;73.412;2022-10-18T06:10:30;20.48;;;9.93;;
72201;SDS011;60105;54.956;73.412;2022-10-18T06:12:56;18.10;;;9.85;;
72201;SDS011;60105;54.956;73.412;2022-10-18T06:15:22;15.05;;;9.82;;
72201;SDS011;60105;54.956;73.412;2022-10-18T06:17:49;17.40;;;9.73;;
72201;SDS011;60105;54.956;73.412;2022-10-18T06:20:15;19.03;;;10.57;;
72201;SDS011;60105;54.956;73.412;2022-10-18T06:22:46;21.77;;;11.57;;
72201;SDS011;60105;54.956;73.412;2022-10-18T06:25:12;20.33;;;11.57;;
72201;SDS011;60105;54.956;73.412;2022-10-18T06:27:39;20.83;;;11.82;;
72201;SDS011;60105;54.956;73.412;2022-10-18T06:30:05;18.52;;;10.43;;
72201;SDS011;60105;54.956;73.412;2022-10-18T06:32:32;18.60;;;11.13;;
72201;SDS011;60105;54.956;73.412;2022-10-18T06:34:58;17.90;;;10.02;;
72201;SDS011;60105;54.956;73.412;2022-10-18T06:37:24;19.45;;;10.68;;
72201;SDS011;60105;54.956;73.412;2022-10-18T06:39:53;19.90;;;11.30;;
72201;SDS011;60105;54.956;73.412;2022-10-18T06:42:19;20.48;;;10.35;;
72201;SDS011;60105;54.956;73.412;2022-10-18T06:44:45;16.17;;;10.90;;
72201;SDS011;60105;54.956;73.412;2022-10-18T06:47:12;18.58;;;10.93;;
72201;SDS011;60105;54.956;73.412;2022-10-18T06:49:38;20.67;;;12.25;;
72201;SDS011;60105;54.956;73.412;2022-10-18T06:52:04;18.10;;;10.85;;
72201;SDS011;60105;54.956;73.412;2022-10-18T06:54:32;24.27;;;11.55;;
72201;SDS011;60105;54.956;73.412;2022-10-18T06:56:58;19.00;;;11.23;;
72201;SDS011;60105;54.956;73.412;2022-10-18T06:59:32;21.30;;;11.32;;
72201;SDS011;60105;54.956;73.412;2022-10-18T07:01:58;17.25;;;10.32;;
72201;SDS011;60105;54.956;73.412;2022-10-18T07:04:26;19.30;;;10.23;;
72201;SDS011;60105;54.956;73.412;2022-10-18T07:06:54;17.48;;;10.73;;
72201;SDS011;60105;54.956;73.412;2022-10-18T07:09:20;16.83;;;9.80;;
72201;SDS011;60105;54.956;73.412;2022-10-18T07:11:46;20.30;;;10.88;;
72201;SDS011;60105;54.956;73.412;2022-10-18T07:14:13;17.73;;;9.93;;
72201;SDS011;60105;54.956;73.412;2022-10-18T07:16:39;21.45;;;10.50;;
72201;SDS011;60105;54.956;73.412;2022-10-18T07:19:06;23.23;;;10.48;;
72201;SDS011;60105;54.956;73.412;2022-10-18T07:21:32;19.53;;;10.37;;
72201;SDS011;60105;54.956;73.412;2022-10-18T07:23:58;17.52;;;10.52;;
72201;SDS011;60105;54.956;73.412;2022-10-18T07:26:28;17.85;;;10.57;;
72201;SDS011;60105;54.956;73.412;2022-10-18T07:29:00;19.65;;;10.77;;
72201;SDS011;60105;54.956;73.412;2022-10-18T07:31:31;20.60;;;10.38;;
72201;SDS011;60105;54.956;73.412;2022-10-18T07:33:58;22.33;;;10.03;;
72201;SDS011;60105;54.956;73.412;2022-10-18T07:36:24;19.70;;;11.00;;
72201;SDS011;60105;54.956;73.412;2022-10-18T07:38:51;18.20;;;10.75;;
72201;SDS011;60105;54.956;73.412;2022-10-18T07:41:18;21.88;;;10.60;;
72201;SDS011;60105;54.956;73.412;2022-10-18T07:43:46;20.17;;;10.38;;
72201;SDS011;60105;54.956;73.412;2022-10-18T07:46:13;21.13;;;10.83;;
72201;SDS011;60105;54.956;73.412;2022-10-18T07:48:40;19.08;;;10.82;;
72201;SDS011;60105;54.956;73.412;2022-10-18T07:51:06;21.75;;;10.25;;
72201;SDS011;60105;54.956;73.412;2022-10-18T07:53:40;19.63;;;10.50;;
72201;SDS011;60105;54.956;73.412;2022-10-18T07:56:07;16.02;;;9.55;;
72201;SDS011;60105;54.956;73.412;2022-10-18T07:58:41;15.70;;;8.53;;
72201;SDS011;60105;54.956;73.412;2022-10-18T08:01:08;16.40;;;9.15;;
72201;SDS011;60105;54.956;73.412;2022-10-18T08:03:35;13.75;;;8.27;;
72201;SDS011;60105;54.956;73.412;2022-10-18T08:06:02;16.42;;;9.00;;
72201;SDS011;60105;54.956;73.412;2022-10-18T08:08:36;14.93;;;8.48;;
72201;SDS011;60105;54.956;73.412;2022-10-18T08:11:05;16.70;;;9.57;;
72201;SDS011;60105;54.956;73.412;2022-10-18T08:13:37;17.63;;;8.93;;
72201;SDS011;60105;54.956;73.412;2022-10-18T08:16:05;15.50;;;8.65;;
72201;SDS011;60105;54.956;73.412;2022-10-18T08:18:33;16.02;;;8.00;;
72201;SDS011;60105;54.956;73.412;2022-10-18T08:21:01;15.05;;;8.50;;
72201;SDS011;60105;54.956;73.412;2022-10-18T08:23:29;14.50;;;7.67;;
72201;SDS011;60105;54.956;73.412;2022-10-18T08:25:55;12.35;;;6.50;;
72201;SDS011;60105;54.956;73.412;2022-10-18T08:28:25;14.38;;;7.18;;
72201;SDS011;60105;54.956;73.412;2022-10-18T08:30:51;11.90;;;6.78;;
72201;SDS011;60105;54.956;73.412;2022-10-18T08:33:20;12.50;;;7.15;;
72201;SDS011;60105;54.956;73.412;2022-10-18T08:35:54;14.97;;;8.50;;
72201;SDS011;60105;54.956;73.412;2022-10-18T08:38:21;15.07;;;7.90;;
72201;SDS011;60105;54.956;73.412;2022-10-18T08:40:47;14.23;;;7.63;;
72201;SDS011;60105;54.956;73.412;2022-10-18T08:45:55;11.20;;;6.57;;
72201;SDS011;60105;54.956;73.412;2022-10-18T08:48:33;13.00;;;6.60;;
72201;SDS011;60105;54.956;73.412;2022-10-18T08:51:03;11.32;;;6.28;;
72201;SDS011;60105;54.956;73.412;2022-10-18T08:53:50;12.57;;;7.03;;
72201;SDS011;60105;54.956;73.412;2022-10-18T08:56:37;13.05;;;6.93;;
72201;SDS011;60105;54.956;73.412;2022-10-18T08:59:10;14.15;;;8.48;;
72201;SDS011;60105;54.956;73.412;2022-10-18T09:02:00;15.77;;;8.67;;
72201;SDS011;60105;54.956;73.412;2022-10-18T09:10:08;14.60;;;7.40;;
72201;SDS011;60105;54.956;73.412;2022-10-18T09:15:59;10.93;;;5.80;;
72201;SDS011;60105;54.956;73.412;2022-10-18T09:18:41;11.50;;;5.97;;
72201;SDS011;60105;54.956;73.412;2022-10-18T09:24:08;11.50;;;7.03;;
72201;SDS011;60105;54.956;73.412;2022-10-18T09:26:43;9.80;;;5.85;;
72201;SDS011;60105;54.956;73.412;2022-10-18T09:34:43;12.93;;;5.78;;
72201;SDS011;60105;54.956;73.412;2022-10-18T09:37:16;10.25;;;5.40;;
72201;SDS011;60105;54.956;73.412;2022-10-18T09:40:02;9.77;;;5.88;;
72201;SDS011;60105;54.956;73.412;2022-10-18T09:42:38;9.93;;;5.77;;
72201;SDS011;60105;54.956;73.412;2022-10-18T09:45:20;10.95;;;5.88;;
72201;SDS011;60105;54.956;73.412;2022-10-18T09:48:10;10.18;;;6.07;;
72201;SDS011;60105;54.956;73.412;2022-10-18T09:50:43;9.55;;;5.45;;
72201;SDS011;60105;54.956;73.412;2022-10-18T09:56:54;13.73;;;5.50;;
72201;SDS011;60105;54.956;73.412;2022-10-18T09:59:34;10.95;;;5.35;;
72201;SDS011;60105;54.956;73.412;2022-10-18T10:02:05;9.85;;;5.97;;
72201;SDS011;60105;54.956;73.412;2022-10-18T10:04:36;12.45;;;6.32;;
72201;SDS011;60105;54.956;73.412;2022-10-18T10:07:17;11.52;;;6.75;;
72201;SDS011;60105;54.956;73.412;2022-10-18T10:10:21;12.37;;;6.00;;
72201;SDS011;60105;54.956;73.412;2022-10-18T10:18:24;11.60;;;5.38;;
72201;SDS011;60105;54.956;73.412;2022-10-18T10:20:55;12.60;;;5.88;;
72201;SDS011;60105;54.956;73.412;2022-10-18T10:23:26;11.13;;;5.20;;
72201;SDS011;60105;54.956;73.412;2022-10-18T10:25:53;11.60;;;5.95;;
72201;SDS011;60105;54.956;73.412;2022-10-18T10:28:23;11.13;;;6.25;;
72201;SDS011;60105;54.956;73.412;2022-10-18T10:31:15;11.98;;;6.25;;
72201;SDS011;60105;54.956;73.412;2022-10-18T10:36:50;18.37;;;7.23;;
72201;SDS011;60105;54.956;73.412;2022-10-18T10:39:18;7.95;;;4.32;;
72201;SDS011;60105;54.956;73.412;2022-10-18T10:41:46;8.77;;;4.72;;
72201;SDS011;60105;54.956;73.412;2022-10-18T10:44:14;11.77;;;5.10;;
72201;SDS011;60105;54.956;73.412;2022-10-18T10:46:42;7.53;;;3.60;;
72201;SDS011;60105;54.956;73.412;2022-10-18T10:49:15;6.67;;;3.80;;
72201;SDS011;60105;54.956;73.412;2022-10-18T10:52:00;8.43;;;4.00;;
72201;SDS011;60105;54.956;73.412;2022-10-18T10:54:29;8.80;;;4.47;;
72201;SDS011;60105;54.956;73.412;2022-10-18T10:57:04;8.85;;;5.32;;
72201;SDS011;60105;54.956;73.412;2022-10-18T10:59:44;8.82;;;5.10;;
72201;SDS011;60105;54.956;73.412;2022-10-18T11:04:40;10.38;;;4.32;;
72201;SDS011;60105;54.956;73.412;2022-10-18T11:12:46;8.80;;;4.97;;
72201;SDS011;60105;54.956;73.412;2022-10-18T11:15:21;9.70;;;5.67;;
72201;SDS011;60105;54.956;73.412;2022-10-18T11:23:36;14.43;;;6.30;;
72201;SDS011;60105;54.956;73.412;2022-10-18T11:31:21;14.45;;;7.03;;
72201;SDS011;60105;54.956;73.412;2022-10-18T11:34:16;16.75;;;7.20;;
72201;SDS011;60105;54.956;73.412;2022-10-18T11:37:14;13.10;;;7.32;;
72201;SDS011;60105;54.956;73.412;2022-10-18T11:43:15;17.43;;;8.07;;
72201;SDS011;60105;54.956;73.412;2022-10-18T11:48:44;9.25;;;5.40;;
72201;SDS011;60105;54.956;73.412;2022-10-18T11:51:43;11.55;;;5.75;;
72201;SDS011;60105;54.956;73.412;2022-10-18T11:57:07;16.53;;;6.53;;
72201;SDS011;60105;54.956;73.412;2022-10-18T11:59:55;12.05;;;5.35;;
72201;SDS011;60105;54.956;73.412;2022-10-18T12:05:25;9.73;;;5.43;;
72201;SDS011;60105;54.956;73.412;2022-10-18T12:10:44;11.43;;;5.67;;
72201;SDS011;60105;54.956;73.412;2022-10-18T12:13:17;14.88;;;6.18;;
72201;SDS011;60105;54.956;73.412;2022-10-18T12:15:52;14.20;;;7.25;;
72201;SDS011;60105;54.956;73.412;2022-10-18T12:18:24;11.95;;;6.85;;
72201;SDS011;60105;54.956;73.412;2022-10-18T12:20:52;12.18;;;6.57;;
72201;SDS011;60105;54.956;73.412;2022-10-18T12:23:37;12.97;;;7.13;;
72201;SDS011;60105;54.956;73.412;2022-10-18T12:26:09;13.43;;;6.22;;
72201;SDS011;60105;54.956;73.412;2022-10-18T12:31:22;11.38;;;5.97;;
72201;SDS011;60105;54.956;73.412;2022-10-18T12:34:00;11.13;;;6.63;;
72201;SDS011;60105;54.956;73.412;2022-10-18T12:39:27;10.93;;;5.57;;
72201;SDS011;60105;54.956;73.412;2022-10-18T12:41:56;9.38;;;5.57;;
72201;SDS011;60105;54.956;73.412;2022-10-18T12:44:26;10.05;;;6.30;;
72201;SDS011;60105;54.956;73.412;2022-10-18T12:46:57;13.48;;;6.97;;
72201;SDS011;60105;54.956;73.412;2022-10-18T12:49:28;10.53;;;6.30;;
72201;SDS011;60105;54.956;73.412;2022-10-18T12:52:01;14.20;;;6.57;;
72201;SDS011;60105;54.956;73.412;2022-10-18T12:54:31;12.65;;;7.78;;
72201;SDS011;60105;54.956;73.412;2022-10-18T12:57:05;21.80;;;11.40;;
72201;SDS011;60105;54.956;73.412;2022-10-18T12:59:47;26.42;;;14.13;;
72201;SDS011;60105;54.956;73.412;2022-10-18T13:02:23;28.90;;;16.20;;
72201;SDS011;60105;54.956;73.412;2022-10-18T13:04:51;30.95;;;17.45;;
72201;SDS011;60105;54.956;73.412;2022-10-18T13:12:55;43.03;;;23.55;;
72201;SDS011;60105;54.956;73.412;2022-10-18T13:15:35;44.20;;;24.93;;
72201;SDS011;60105;54.956;73.412;2022-10-18T13:21:11;46.78;;;25.85;;
72201;SDS011;60105;54.956;73.412;2022-10-18T13:26:40;43.40;;;25.20;;
72201;SDS011;60105;54.956;73.412;2022-10-18T13:29:32;45.13;;;24.83;;
72201;SDS011;60105;54.956;73.412;2022-10-18T13:32:22;41.70;;;23.50;;
72201;SDS011;60105;54.956;73.412;2022-10-18T13:34:49;40.72;;;23.70;;
72201;SDS011;60105;54.956;73.412;2022-10-18T13:37:22;44.13;;;25.63;;
72201;SDS011;60105;54.956;73.412;2022-10-18T13:39:49;42.50;;;25.50;;
72201;SDS011;60105;54.956;73.412;2022-10-18T13:42:18;42.83;;;25.90;;
72201;SDS011;60105;54.956;73.412;2022-10-18T13:50:52;48.42;;;27.73;;
72201;SDS011;60105;54.956;73.412;2022-10-18T13:59:31;56.72;;;29.30;;
72201;SDS011;60105;54.956;73.412;2022-10-18T14:02:21;54.95;;;30.23;;
72201;SDS011;60105;54.956;73.412;2022-10-18T14:07:37;51.63;;;27.63;;
72201;SDS011;60105;54.956;73.412;2022-10-18T14:10:19;53.63;;;32.23;;
72201;SDS011;60105;54.956;73.412;2022-10-18T14:12:52;48.13;;;27.83;;
72201;SDS011;60105;54.956;73.412;2022-10-18T14:15:23;49.53;;;28.70;;
72201;SDS011;60105;54.956;73.412;2022-10-18T14:17:51;51.78;;;28.00;;
72201;SDS011;60105;54.956;73.412;2022-10-18T14:20:21;49.45;;;28.33;;
72201;SDS011;60105;54.956;73.412;2022-10-18T14:25:35;50.30;;;29.35;;
72201;SDS011;60105;54.956;73.412;2022-10-18T14:28:03;61.63;;;36.08;;
72201;SDS011;60105;54.956;73.412;2022-10-18T14:30:36;68.80;;;36.88;;
72201;SDS011;60105;54.956;73.412;2022-10-18T14:36:10;67.53;;;36.80;;
72201;SDS011;60105;54.956;73.412;2022-10-18T14:38:47;67.97;;;36.80;;
72201;SDS011;60105;54.956;73.412;2022-10-18T14:41:15;65.28;;;36.40;;
72201;SDS011;60105;54.956;73.412;2022-10-18T14:43:45;61.40;;;34.38;;
72201;SDS011;60105;54.956;73.412;2022-10-18T14:48:52;63.17;;;31.83;;
72201;SDS011;60105;54.956;73.412;2022-10-18T14:51:33;57.28;;;32.67;;
72201;SDS011;60105;54.956;73.412;2022-10-18T14:54:01;54.92;;;31.85;;
72201;SDS011;60105;54.956;73.412;2022-10-18T14:56:29;57.03;;;29.90;;
72201;SDS011;60105;54.956;73.412;2022-10-18T14:58:57;55.22;;;31.02;;
72201;SDS011;60105;54.956;73.412;2022-10-18T15:01:28;57.70;;;29.70;;
72201;SDS011;60105;54.956;73.412;2022-10-18T15:03:57;52.08;;;27.67;;
72201;SDS011;60105;54.956;73.412;2022-10-18T15:06:27;50.13;;;27.67;;
72201;SDS011;60105;54.956;73.412;2022-10-18T15:08:55;49.83;;;28.40;;
72201;SDS011;60105;54.956;73.412;2022-10-18T15:11:25;47.58;;;27.45;;
72201;SDS011;60105;54.956;73.412;2022-10-18T15:13:54;46.63;;;25.50;;
72201;SDS011;60105;54.956;73.412;2022-10-18T15:16:27;45.97;;;26.10;;
72201;SDS011;60105;54.956;73.412;2022-10-18T15:19:18;51.33;;;26.40;;
72201;SDS011;60105;54.956;73.412;2022-10-18T15:26:55;37.27;;;21.93;;
72201;SDS011;60105;54.956;73.412;2022-10-18T15:29:25;42.83;;;21.42;;
72201;SDS011;60105;54.956;73.412;2022-10-18T15:31:52;38.60;;;21.02;;
72201;SDS011;60105;54.956;73.412;2022-10-18T15:34:25;34.63;;;19.85;;
72201;SDS011;60105;54.956;73.412;2022-10-18T15:36:53;32.20;;;18.70;;
72201;SDS011;60105;54.956;73.412;2022-10-18T15:39:21;39.63;;;20.17;;
72201;SDS011;60105;54.956;73.412;2022-10-18T15:42:00;34.13;;;19.13;;
72201;SDS011;60105;54.956;73.412;2022-10-18T15:44:45;33.70;;;18.60;;
72201;SDS011;60105;54.956;73.412;2022-10-18T15:49:48;34.88;;;19.48;;
72201;SDS011;60105;54.956;73.412;2022-10-18T15:52:29;37.70;;;20.97;;
72201;SDS011;60105;54.956;73.412;2022-10-18T16:00:58;38.97;;;22.73;;
72201;SDS011;60105;54.956;73.412;2022-10-18T16:03:33;47.05;;;24.23;;
72201;SDS011;60105;54.956;73.412;2022-10-18T16:06:05;37.80;;;21.83;;
72201;SDS011;60105;54.956;73.412;2022-10-18T16:08:52;39.78;;;21.67;;
72201;SDS011;60105;54.956;73.412;2022-10-18T16:11:27;42.92;;;22.90;;
72201;SDS011;60105;54.956;73.412;2022-10-18T16:13:54;34.83;;;20.63;;
72201;SDS011;60105;54.956;73.412;2022-10-18T16:16:21;38.75;;;20.80;;
72201;SDS011;60105;54.956;73.412;2022-10-18T16:18:49;32.70;;;19.57;;
72201;SDS011;60105;54.956;73.412;2022-10-18T16:21:28;34.88;;;18.88;;
72201;SDS011;60105;54.956;73.412;2022-10-18T16:23:58;28.67;;;16.13;;
72201;SDS011;60105;54.956;73.412;2022-10-18T16:26:35;24.45;;;14.65;;
72201;SDS011;60105;54.956;73.412;2022-10-18T16:29:09;26.27;;;14.02;;
72201;SDS011;60105;54.956;73.412;2022-10-18T16:31:39;25.73;;;15.80;;
72201;SDS011;60105;54.956;73.412;2022-10-18T16:34:05;24.23;;;13.43;;
72201;SDS011;60105;54.956;73.412;2022-10-18T16:36:35;25.25;;;14.10;;
72201;SDS011;60105;54.956;73.412;2022-10-18T16:39:03;27.90;;;13.30;;
72201;SDS011;60105;54.956;73.412;2022-10-18T16:41:34;25.73;;;13.82;;
72201;SDS011;60105;54.956;73.412;2022-10-18T16:44:04;27.17;;;14.87;;
72201;SDS011;60105;54.956;73.412;2022-10-18T16:46:37;22.35;;;14.25;;
72201;SDS011;60105;54.956;73.412;2022-10-18T16:49:18;30.00;;;15.23;;
72201;SDS011;60105;54.956;73.412;2022-10-18T16:51:54;26.02;;;13.70;;
72201;SDS011;60105;54.956;73.412;2022-10-18T16:54:30;24.55;;;14.35;;
72201;SDS011;60105;54.956;73.412;2022-10-18T16:56:57;25.10;;;13.83;;
72201;SDS011;60105;54.956;73.412;2022-10-18T16:59:24;26.45;;;14.60;;
72201;SDS011;60105;54.956;73.412;2022-10-18T17:01:52;28.55;;;14.82;;
72201;SDS011;60105;54.956;73.412;2022-10-18T17:04:19;27.42;;;14.57;;
72201;SDS011;60105;54.956;73.412;2022-10-18T17:06:45;30.77;;;14.82;;
72201;SDS011;60105;54.956;73.412;2022-10-18T17:09:14;26.10;;;14.37;;
72201;SDS011;60105;54.956;73.412;2022-10-18T17:11:40;26.17;;;14.23;;
72201;SDS011;60105;54.956;73.412;2022-10-18T17:14:07;22.33;;;13.05;;
72201;SDS011;60105;54.956;73.412;2022-10-18T17:16:34;20.73;;;12.40;;
72201;SDS011;60105;54.956;73.412;2022-10-18T17:19:02;25.33;;;11.65;;
72201;SDS011;60105;54.956;73.412;2022-10-18T17:21:31;19.43;;;11.57;;